Terminal Aerodrome Forecast
Issued by NWS

Home | Current Version | Previous Version | Text Only | Print | Product List | Glossary On
Versions: 1 2 3 4 5 6 7 8 9 10 11 12 13 14
000
FTUS44 KJAN 301737
TAFHKS
TAF
KHKS 301737Z 3018/3118 19004KT P6SM FEW035
     FM302300 20006KT 6SM -SHRA VCTS SCT030 BKN050CB BKN150
     FM310400 18004KT P6SM SCT020 BKN030 BKN150
     FM311100 17003KT P6SM OVC015
     FM311600 24005KT P6SM OVC025=

USA.gov is the U.S. government's official web portal to all federal, state and local government web resources and services.